Time;durP1;ratioP1;P1;durP2;ratioP2;P2;SDS_P1;SDS_P2;PMS_P1;PMS_P2;Temp;Humidity;BMP_temperature;BMP_pressure;BME280_temperature;BME280_humidity;BME280_pressure;Samples;Min_cycle;Max_cycle;Signal;HPM_P1;HPM_P2
2020/12/16 00:00:42;;;;;;;46.20;19.47;;;;;;;;;;10437544;27;20250;-72
2020/12/16 00:05:44;;;;;;;110.10;19.23;;;;;;;;;;10438740;27;20807;-72
2020/12/16 00:10:46;;;;;;;211.13;20.60;;;;;;;;;;10438510;27;20207;-71
2020/12/16 00:15:49;;;;;;;183.77;20.43;;;;;;;;;;10441266;27;20288;-71
2020/12/16 00:20:50;;;;;;;114.40;20.47;;;;;;;;;;10432916;27;20239;-71
2020/12/16 00:25:52;;;;;;;125.33;20.63;;;;;;;;;;10429329;27;20214;-72
2020/12/16 00:30:55;;;;;;;78.10;19.20;;;;;;;;;;10433438;27;20222;-71
2020/12/16 00:35:57;;;;;;;99.13;21.07;;;;;;;;;;10453376;27;20215;-71
2020/12/16 00:40:59;;;;;;;61.87;20.17;;;;;;;;;;10435929;27;20253;-71
2020/12/16 00:46:01;;;;;;;87.03;21.33;;;;;;;;;;10440212;27;20218;-71
2020/12/16 00:51:03;;;;;;;103.30;20.43;;;;;;;;;;10462615;27;20219;-71
2020/12/16 00:56:05;;;;;;;115.93;21.20;;;;;;;;;;10455288;27;20744;-72
2020/12/16 01:01:08;;;;;;;44.90;20.83;;;;;;;;;;10437504;27;20251;-70
2020/12/16 01:06:11;;;;;;;81.47;20.63;;;;;;;;;;10442018;27;20282;-70
2020/12/16 01:11:13;;;;;;;152.13;21.60;;;;;;;;;;10438299;28;20254;-71
2020/12/16 01:16:16;;;;;;;97.67;20.63;;;;;;;;;;10438595;28;20748;-70
2020/12/16 01:21:18;;;;;;;82.73;22.53;;;;;;;;;;10436426;27;20239;-71
2020/12/16 01:26:19;;;;;;;73.10;20.30;;;;;;;;;;10455198;27;20207;-71
2020/12/16 01:31:22;;;;;;;73.60;20.67;;;;;;;;;;10430801;27;20588;-71
2020/12/16 01:36:24;;;;;;;79.67;18.77;;;;;;;;;;10439692;27;20208;-70
2020/12/16 01:41:25;;;;;;;54.80;17.27;;;;;;;;;;10431435;27;20631;-71
2020/12/16 01:46:28;;;;;;;68.33;18.10;;;;;;;;;;10428798;27;20230;-71
2020/12/16 01:51:32;;;;;;;52.83;18.23;;;;;;;;;;10435825;27;20594;-71
2020/12/16 01:56:37;;;;;;;71.70;18.10;;;;;;;;;;10437042;27;20211;-71
2020/12/16 02:01:41;;;;;;;65.10;18.23;;;;;;;;;;10432232;27;20235;-71
2020/12/16 02:06:43;;;;;;;102.60;17.23;;;;;;;;;;10436067;27;20219;-71
2020/12/16 02:11:45;;;;;;;63.77;17.93;;;;;;;;;;10431719;27;20212;-71
2020/12/16 02:16:48;;;;;;;53.43;18.53;;;;;;;;;;10430939;27;20227;-71
2020/12/16 02:21:50;;;;;;;70.87;18.27;;;;;;;;;;10440458;27;20242;-71
2020/12/16 02:26:53;;;;;;;36.07;17.63;;;;;;;;;;10432609;27;20227;-70
2020/12/16 02:31:56;;;;;;;51.27;18.20;;;;;;;;;;10436201;27;20218;-71
2020/12/16 02:36:57;;;;;;;34.57;18.50;;;;;;;;;;10425853;27;20207;-72
2020/12/16 02:42:01;;;;;;;60.23;19.47;;;;;;;;;;10439858;27;22152;-72
2020/12/16 02:47:04;;;;;;;77.50;19.03;;;;;;;;;;10433917;27;20253;-71
2020/12/16 02:52:06;;;;;;;57.90;19.47;;;;;;;;;;10437351;27;20537;-72
2020/12/16 02:57:08;;;;;;;71.27;19.93;;;;;;;;;;10434947;27;20215;-72
2020/12/16 03:02:10;;;;;;;95.17;19.87;;;;;;;;;;10434794;27;20649;-72
2020/12/16 03:07:12;;;;;;;40.97;21.17;;;;;;;;;;10435306;27;20211;-72
2020/12/16 03:12:15;;;;;;;40.27;21.13;;;;;;;;;;10438030;27;20215;-70
2020/12/16 03:17:16;;;;;;;40.40;21.37;;;;;;;;;;10429377;27;20219;-71
2020/12/16 03:22:18;;;;;;;48.93;21.83;;;;;;;;;;10444799;27;20294;-71
2020/12/16 03:27:21;;;;;;;71.30;22.70;;;;;;;;;;10434203;27;20242;-71
2020/12/16 03:32:23;;;;;;;43.80;21.73;;;;;;;;;;10440080;27;20226;-71
2020/12/16 03:37:25;;;;;;;86.00;22.30;;;;;;;;;;10431748;27;20218;-69
2020/12/16 03:42:27;;;;;;;41.70;21.33;;;;;;;;;;10435006;27;20223;-70
2020/12/16 03:47:29;;;;;;;46.87;21.10;;;;;;;;;;10432498;27;20960;-70
2020/12/16 03:52:31;;;;;;;55.67;21.37;;;;;;;;;;10432822;27;20235;-70
2020/12/16 03:57:34;;;;;;;45.70;22.00;;;;;;;;;;10434066;27;20288;-71
2020/12/16 04:02:36;;;;;;;59.63;21.97;;;;;;;;;;10438504;27;20234;-71
2020/12/16 04:07:37;;;;;;;90.93;22.77;;;;;;;;;;10438544;27;20215;-71
2020/12/16 04:12:40;;;;;;;90.93;23.77;;;;;;;;;;10423309;27;20222;-71
2020/12/16 04:17:42;;;;;;;56.20;22.93;;;;;;;;;;10435495;27;20246;-71
2020/12/16 04:22:44;;;;;;;103.07;23.87;;;;;;;;;;10442571;27;20215;-71
2020/12/16 04:27:46;;;;;;;73.60;23.70;;;;;;;;;;10433873;27;20806;-71
2020/12/16 04:32:50;;;;;;;111.30;23.70;;;;;;;;;;10438911;27;20214;-70
2020/12/16 04:37:52;;;;;;;78.73;24.27;;;;;;;;;;10437315;27;20243;-70
2020/12/16 04:43:01;;;;;;;52.00;22.97;;;;;;;;;;10432229;27;20914;-70
2020/12/16 04:48:04;;;;;;;71.67;23.93;;;;;;;;;;10430527;27;20310;-71
2020/12/16 04:53:07;;;;;;;242.67;26.57;;;;;;;;;;10431433;27;20830;-71
2020/12/16 04:58:15;;;;;;;74.83;23.00;;;;;;;;;;10436705;27;20238;-71
2020/12/16 05:03:16;;;;;;;70.53;22.60;;;;;;;;;;10456886;27;20227;-70
2020/12/16 05:08:18;;;;;;;71.70;21.30;;;;;;;;;;10430761;27;20207;-70
2020/12/16 05:13:21;;;;;;;88.10;22.53;;;;;;;;;;10450730;27;20222;-71
2020/12/16 05:18:25;;;;;;;54.93;22.27;;;;;;;;;;10431377;27;20239;-70
2020/12/16 05:23:28;;;;;;;44.17;22.50;;;;;;;;;;10463558;27;20215;-71
2020/12/16 05:28:32;;;;;;;44.53;21.10;;;;;;;;;;10435147;27;20219;-72
2020/12/16 05:33:39;;;;;;;38.53;19.83;;;;;;;;;;10441245;27;20729;-70
2020/12/16 05:38:50;;;;;;;38.57;19.13;;;;;;;;;;10438606;27;20249;-71
2020/12/16 05:43:53;;;;;;;57.00;19.77;;;;;;;;;;10438320;27;20215;-72
2020/12/16 05:48:54;;;;;;;34.33;18.23;;;;;;;;;;10445055;27;20256;-71
2020/12/16 05:53:56;;;;;;;34.67;18.00;;;;;;;;;;10438274;27;20247;-71
2020/12/16 05:59:08;;;;;;;37.23;16.73;;;;;;;;;;10441908;27;20246;-71
2020/12/16 06:04:09;;;;;;;43.27;19.47;;;;;;;;;;10438192;27;20232;-70
2020/12/16 06:09:11;;;;;;;37.60;17.67;;;;;;;;;;10439696;27;20986;-70
2020/12/16 06:14:19;;;;;;;42.77;18.33;;;;;;;;;;10425030;27;20235;-70
2020/12/16 06:19:24;;;;;;;43.50;18.67;;;;;;;;;;10434185;27;20613;-70
2020/12/16 06:24:28;;;;;;;59.57;17.63;;;;;;;;;;10441664;27;20681;-70
2020/12/16 06:29:32;;;;;;;40.90;16.40;;;;;;;;;;10450244;27;20332;-70
2020/12/16 06:34:35;;;;;;;92.00;19.07;;;;;;;;;;10440771;27;20211;-69
2020/12/16 06:39:40;;;;;;;49.83;17.33;;;;;;;;;;10437645;27;20235;-70
2020/12/16 06:45:02;;;;;;;32.10;16.27;;;;;;;;;;10440688;27;20235;-70
2020/12/16 06:50:17;;;;;;;74.43;16.50;;;;;;;;;;10435402;27;20218;-71
2020/12/16 06:55:19;;;;;;;39.03;16.40;;;;;;;;;;10440829;27;20239;-71
2020/12/16 07:00:23;;;;;;;78.83;18.60;;;;;;;;;;10438851;27;20235;-71
2020/12/16 07:05:35;;;;;;;44.07;18.17;;;;;;;;;;10432459;27;20234;-69
2020/12/16 07:10:50;;;;;;;34.03;18.83;;;;;;;;;;10450541;27;20214;-70
2020/12/16 07:15:54;;;;;;;35.23;18.03;;;;;;;;;;10436235;27;20219;-70
2020/12/16 07:21:00;;;;;;;46.30;19.40;;;;;;;;;;10442206;27;20724;-69
2020/12/16 07:26:02;;;;;;;45.07;19.33;;;;;;;;;;10437852;27;20214;-70
2020/12/16 07:31:07;;;;;;;47.73;20.40;;;;;;;;;;10437006;27;20222;-69
2020/12/16 07:36:09;;;;;;;39.37;18.50;;;;;;;;;;10433513;27;20218;-69
2020/12/16 07:41:11;;;;;;;41.40;19.77;;;;;;;;;;10432644;27;20243;-69
2020/12/16 07:46:14;;;;;;;36.03;19.33;;;;;;;;;;10433648;27;20603;-68
2020/12/16 07:51:18;;;;;;;33.83;18.50;;;;;;;;;;10453215;27;20219;-70
2020/12/16 07:56:20;;;;;;;44.17;20.03;;;;;;;;;;10433250;27;20214;-69
2020/12/16 08:01:23;;;;;;;44.70;20.40;;;;;;;;;;10435747;27;20616;-70
2020/12/16 08:06:25;;;;;;;35.87;19.37;;;;;;;;;;10436177;27;20241;-69
2020/12/16 08:11:27;;;;;;;33.13;19.13;;;;;;;;;;10429421;27;20212;-69
2020/12/16 08:16:31;;;;;;;34.97;19.07;;;;;;;;;;10440985;27;20204;-69
2020/12/16 08:21:33;;;;;;;44.63;20.53;;;;;;;;;;10433296;27;20247;-69
2020/12/16 08:26:35;;;;;;;44.27;20.20;;;;;;;;;;10428517;27;20207;-69
2020/12/16 08:31:38;;;;;;;33.33;18.57;;;;;;;;;;10432073;27;20639;-69
2020/12/16 08:36:42;;;;;;;38.77;19.17;;;;;;;;;;10436880;27;20208;-70
2020/12/16 08:41:44;;;;;;;33.33;18.87;;;;;;;;;;10436184;27;20231;-70
2020/12/16 08:46:46;;;;;;;35.07;19.40;;;;;;;;;;10432313;27;20288;-70
2020/12/16 08:51:48;;;;;;;29.83;17.80;;;;;;;;;;10431422;27;20231;-70
2020/12/16 08:56:52;;;;;;;31.07;17.63;;;;;;;;;;10432531;27;20275;-70
2020/12/16 09:01:55;;;;;;;36.67;17.80;;;;;;;;;;10440413;27;20246;-70
2020/12/16 09:06:58;;;;;;;30.00;17.03;;;;;;;;;;10443479;27;20219;-70
2020/12/16 09:12:00;;;;;;;31.63;17.10;;;;;;;;;;10437037;27;20574;-70
2020/12/16 09:17:07;;;;;;;31.27;16.47;;;;;;;;;;10453076;27;20222;-68
2020/12/16 09:22:09;;;;;;;27.83;16.23;;;;;;;;;;10440347;27;20235;-69
2020/12/16 09:27:11;;;;;;;25.90;16.23;;;;;;;;;;10452459;27;20698;-69
2020/12/16 09:32:15;;;;;;;26.33;15.83;;;;;;;;;;10438818;27;20557;-69
2020/12/16 09:37:17;;;;;;;26.73;15.93;;;;;;;;;;10441809;28;20230;-69
2020/12/16 09:42:20;;;;;;;26.57;15.13;;;;;;;;;;10435928;27;20326;-70
2020/12/16 09:47:24;;;;;;;22.13;13.80;;;;;;;;;;10439407;27;20720;-69
2020/12/16 09:52:27;;;;;;;25.30;13.33;;;;;;;;;;10437078;27;20618;-70
2020/12/16 09:57:29;;;;;;;24.10;14.13;;;;;;;;;;10436892;27;20211;-69
2020/12/16 10:02:32;;;;;;;24.10;13.33;;;;;;;;;;10435291;27;20246;-69
2020/12/16 10:07:34;;;;;;;22.40;13.53;;;;;;;;;;10440591;27;20222;-69
2020/12/16 10:12:36;;;;;;;20.57;13.40;;;;;;;;;;10442527;27;20218;-70
2020/12/16 10:17:39;;;;;;;22.57;13.73;;;;;;;;;;10437521;27;20521;-71
2020/12/16 10:22:40;;;;;;;24.23;13.43;;;;;;;;;;10436559;27;20239;-70
2020/12/16 10:27:46;;;;;;;24.67;13.57;;;;;;;;;;10454724;27;20599;-71
2020/12/16 10:32:49;;;;;;;19.57;12.00;;;;;;;;;;10430186;27;20369;-69
2020/12/16 10:37:51;;;;;;;19.03;12.73;;;;;;;;;;10434991;27;20230;-69
2020/12/16 10:42:53;;;;;;;20.17;12.60;;;;;;;;;;10435766;27;20239;-70
2020/12/16 10:47:59;;;;;;;22.83;12.23;;;;;;;;;;10443551;27;20211;-70
2020/12/16 10:53:00;;;;;;;18.70;12.10;;;;;;;;;;10433663;27;20234;-69
2020/12/16 10:58:03;;;;;;;18.30;12.33;;;;;;;;;;10439237;27;20211;-69
2020/12/16 11:03:05;;;;;;;19.47;11.53;;;;;;;;;;10436953;27;20243;-70
2020/12/16 11:08:07;;;;;;;20.27;11.97;;;;;;;;;;10438191;27;20222;-70
2020/12/16 11:13:10;;;;;;;19.27;12.67;;;;;;;;;;10423652;27;20215;-69
2020/12/16 11:18:12;;;;;;;20.20;12.43;;;;;;;;;;10439956;27;20212;-69
2020/12/16 11:23:14;;;;;;;23.87;11.97;;;;;;;;;;10434050;27;20211;-70
2020/12/16 11:28:16;;;;;;;18.83;12.40;;;;;;;;;;10434803;27;20218;-69
2020/12/16 11:33:18;;;;;;;19.67;11.53;;;;;;;;;;10437486;27;20220;-69
2020/12/16 11:38:20;;;;;;;22.33;12.37;;;;;;;;;;10452672;27;20210;-70
2020/12/16 11:43:22;;;;;;;19.20;12.20;;;;;;;;;;10433515;27;20207;-70
2020/12/16 11:48:24;;;;;;;20.10;12.00;;;;;;;;;;10431426;27;20229;-70
2020/12/16 11:53:26;;;;;;;19.23;11.67;;;;;;;;;;10435460;27;20237;-70
2020/12/16 11:58:29;;;;;;;18.10;10.90;;;;;;;;;;10431846;27;20208;-70
2020/12/16 12:03:31;;;;;;;18.60;11.80;;;;;;;;;;10448845;27;20599;-69
2020/12/16 12:08:33;;;;;;;19.20;12.17;;;;;;;;;;10435497;27;20305;-70
2020/12/16 12:13:36;;;;;;;18.37;12.03;;;;;;;;;;10437545;27;20211;-70
2020/12/16 12:18:38;;;;;;;19.63;12.30;;;;;;;;;;10438838;27;20279;-70
2020/12/16 12:23:40;;;;;;;19.07;11.70;;;;;;;;;;10440594;27;20679;-70
2020/12/16 12:28:43;;;;;;;17.90;11.70;;;;;;;;;;10426392;27;20215;-69
2020/12/16 12:33:45;;;;;;;19.73;11.90;;;;;;;;;;10432312;27;20219;-69
2020/12/16 12:38:47;;;;;;;22.93;12.77;;;;;;;;;;10435461;27;20241;-69
2020/12/16 12:43:50;;;;;;;21.07;12.30;;;;;;;;;;10436988;27;20208;-69
2020/12/16 12:48:52;;;;;;;19.87;12.57;;;;;;;;;;10436446;27;20208;-70
2020/12/16 12:53:54;;;;;;;21.43;11.90;;;;;;;;;;10431457;27;20246;-70
2020/12/16 12:58:57;;;;;;;21.93;12.63;;;;;;;;;;10426976;27;20239;-69
2020/12/16 13:03:59;;;;;;;19.73;11.93;;;;;;;;;;10441107;27;20231;-68
2020/12/16 13:09:01;;;;;;;22.50;12.83;;;;;;;;;;10428272;27;20613;-69
2020/12/16 13:14:04;;;;;;;22.30;12.83;;;;;;;;;;10432827;27;20220;-70
2020/12/16 13:19:07;;;;;;;26.80;13.50;;;;;;;;;;10433921;27;20731;-72
2020/12/16 13:24:09;;;;;;;21.13;12.23;;;;;;;;;;10433391;27;20708;-70
2020/12/16 13:29:12;;;;;;;20.83;12.40;;;;;;;;;;10432978;27;20658;-69
2020/12/16 13:34:14;;;;;;;23.50;12.77;;;;;;;;;;10433031;27;20532;-70
2020/12/16 13:39:16;;;;;;;21.23;12.73;;;;;;;;;;10441756;27;20232;-69
2020/12/16 13:44:18;;;;;;;27.63;12.97;;;;;;;;;;10442957;27;20226;-69
2020/12/16 13:49:20;;;;;;;23.43;13.30;;;;;;;;;;10438692;27;20211;-69
2020/12/16 13:54:22;;;;;;;24.67;13.37;;;;;;;;;;10445914;27;20230;-69
2020/12/16 13:59:25;;;;;;;25.47;14.47;;;;;;;;;;10439666;27;20713;-70
2020/12/16 14:04:45;;;;;;;28.00;13.77;;;;;;;;;;10431973;27;20232;-70
2020/12/16 14:09:47;;;;;;;24.27;13.73;;;;;;;;;;10428032;27;20574;-70
2020/12/16 14:14:50;;;;;;;26.93;13.97;;;;;;;;;;10449406;27;20210;-70
2020/12/16 14:19:52;;;;;;;29.97;15.30;;;;;;;;;;10436585;27;20633;-70
2020/12/16 14:24:54;;;;;;;23.63;13.30;;;;;;;;;;10435014;27;20207;-69
2020/12/16 14:29:57;;;;;;;22.23;13.67;;;;;;;;;;10458974;27;20235;-70
2020/12/16 14:34:59;;;;;;;27.13;14.20;;;;;;;;;;10439221;27;20416;-70
2020/12/16 14:40:01;;;;;;;23.93;14.13;;;;;;;;;;10433721;27;20241;-70
2020/12/16 14:45:04;;;;;;;22.53;13.77;;;;;;;;;;10430996;27;20580;-70
2020/12/16 14:50:07;;;;;;;24.33;14.40;;;;;;;;;;10450787;27;20590;-70
2020/12/16 14:55:09;;;;;;;22.60;14.23;;;;;;;;;;10438024;27;20245;-70
2020/12/16 15:00:12;;;;;;;22.67;13.40;;;;;;;;;;10438288;27;20242;-71
2020/12/16 15:05:14;;;;;;;23.73;14.47;;;;;;;;;;10435149;27;20747;-71
2020/12/16 15:10:16;;;;;;;23.67;14.07;;;;;;;;;;10444110;27;20211;-70
2020/12/16 15:15:19;;;;;;;24.20;13.80;;;;;;;;;;10461601;27;20216;-70
2020/12/16 15:20:21;;;;;;;25.67;14.10;;;;;;;;;;10431567;27;20231;-70
2020/12/16 15:25:24;;;;;;;29.23;14.47;;;;;;;;;;10443901;27;20211;-71
2020/12/16 15:30:27;;;;;;;23.30;14.07;;;;;;;;;;10442954;27;20199;-72
2020/12/16 15:35:29;;;;;;;23.87;14.23;;;;;;;;;;10431249;27;20950;-71
2020/12/16 15:40:38;;;;;;;26.03;14.60;;;;;;;;;;10431144;27;20618;-71
2020/12/16 15:45:42;;;;;;;23.67;13.87;;;;;;;;;;10440305;27;20218;-71
2020/12/16 15:50:43;;;;;;;29.00;15.40;;;;;;;;;;10431297;27;20330;-71
2020/12/16 15:55:46;;;;;;;25.23;15.17;;;;;;;;;;10446874;27;20231;-72
2020/12/16 16:00:48;;;;;;;27.43;14.80;;;;;;;;;;10437793;27;20240;-70
2020/12/16 16:05:50;;;;;;;26.70;14.97;;;;;;;;;;10436350;27;20239;-71
2020/12/16 16:10:52;;;;;;;26.27;14.87;;;;;;;;;;10438004;27;20223;-71
2020/12/16 16:15:55;;;;;;;28.70;15.47;;;;;;;;;;10449857;27;20222;-70
2020/12/16 16:20:57;;;;;;;29.07;16.33;;;;;;;;;;10436803;27;21257;-71
2020/12/16 16:25:59;;;;;;;32.27;16.50;;;;;;;;;;10430660;27;20212;-69
2020/12/16 16:31:02;;;;;;;35.47;16.43;;;;;;;;;;10436100;27;20230;-70
2020/12/16 16:36:06;;;;;;;30.87;16.03;;;;;;;;;;10430811;27;20223;-70
2020/12/16 16:41:07;;;;;;;31.50;16.23;;;;;;;;;;10429263;27;20239;-70
2020/12/16 16:46:10;;;;;;;32.10;16.30;;;;;;;;;;10468186;27;20222;-70
2020/12/16 16:51:12;;;;;;;30.77;16.10;;;;;;;;;;10440317;27;20222;-70
2020/12/16 16:56:17;;;;;;;33.03;16.70;;;;;;;;;;10442227;27;20728;-71
2020/12/16 17:01:24;;;;;;;32.83;16.43;;;;;;;;;;10432690;27;20232;-72
2020/12/16 17:06:27;;;;;;;29.03;15.83;;;;;;;;;;10428680;27;20215;-71
2020/12/16 17:11:29;;;;;;;31.30;17.13;;;;;;;;;;10426311;27;20223;-71
2020/12/16 17:16:33;;;;;;;33.07;16.37;;;;;;;;;;10433618;27;20208;-70
2020/12/16 17:21:37;;;;;;;34.53;17.90;;;;;;;;;;10437520;27;20242;-70
2020/12/16 17:26:39;;;;;;;31.03;16.87;;;;;;;;;;10440803;27;20211;-71
2020/12/16 17:31:42;;;;;;;32.20;16.97;;;;;;;;;;10440578;27;20211;-71
2020/12/16 17:36:44;;;;;;;29.40;16.53;;;;;;;;;;10444195;27;20226;-70
2020/12/16 17:41:46;;;;;;;36.00;17.43;;;;;;;;;;10449073;27;20235;-70
2020/12/16 17:46:49;;;;;;;32.40;15.87;;;;;;;;;;10449774;27;20318;-70
2020/12/16 17:51:50;;;;;;;30.57;15.93;;;;;;;;;;10441514;27;20306;-71
2020/12/16 17:56:52;;;;;;;29.73;16.07;;;;;;;;;;10401861;27;20250;-70
2020/12/16 18:01:55;;;;;;;28.03;16.07;;;;;;;;;;10410148;27;20244;-70
2020/12/16 18:07:01;;;;;;;30.37;16.20;;;;;;;;;;10402981;27;20751;-71
2020/12/16 18:12:04;;;;;;;27.93;15.37;;;;;;;;;;10406780;27;20648;-70
2020/12/16 18:17:07;;;;;;;26.27;15.20;;;;;;;;;;10411676;27;20235;-70
2020/12/16 18:22:09;;;;;;;28.63;15.83;;;;;;;;;;10412954;27;20243;-71
2020/12/16 18:27:11;;;;;;;28.67;15.33;;;;;;;;;;10405642;27;20220;-70
2020/12/16 18:32:14;;;;;;;27.97;15.70;;;;;;;;;;10435943;27;20662;-70
2020/12/16 18:37:18;;;;;;;28.50;15.00;;;;;;;;;;10401881;27;20258;-70
2020/12/16 18:42:20;;;;;;;29.23;15.67;;;;;;;;;;10403534;27;20243;-69
2020/12/16 18:47:23;;;;;;;26.23;14.93;;;;;;;;;;10402195;27;20212;-68
2020/12/16 18:52:25;;;;;;;28.63;16.33;;;;;;;;;;10407260;27;20246;-70
2020/12/16 18:57:27;;;;;;;32.97;16.20;;;;;;;;;;10436986;27;20219;-70
2020/12/16 19:02:32;;;;;;;31.13;15.27;;;;;;;;;;10449584;27;20243;-70
2020/12/16 19:07:35;;;;;;;28.00;15.00;;;;;;;;;;10436525;27;20210;-69
2020/12/16 19:12:36;;;;;;;24.43;14.40;;;;;;;;;;10431565;27;20202;-70
2020/12/16 19:17:42;;;;;;;27.60;14.40;;;;;;;;;;10423473;27;20208;-69
2020/12/16 19:22:44;;;;;;;28.87;14.13;;;;;;;;;;10424502;27;20234;-69
2020/12/16 19:27:46;;;;;;;22.53;13.70;;;;;;;;;;10418304;27;20219;-70
2020/12/16 19:32:49;;;;;;;24.87;13.43;;;;;;;;;;10440222;27;20797;-70
2020/12/16 19:37:51;;;;;;;24.67;13.67;;;;;;;;;;10425851;27;20210;-70
2020/12/16 19:42:53;;;;;;;24.90;13.27;;;;;;;;;;10436500;27;20240;-71
2020/12/16 19:47:56;;;;;;;24.40;13.20;;;;;;;;;;10434193;27;20222;-71
2020/12/16 19:52:58;;;;;;;22.57;12.63;;;;;;;;;;10433440;27;20227;-69
2020/12/16 19:58:00;;;;;;;20.60;12.10;;;;;;;;;;10428168;27;20602;-68
2020/12/16 20:03:03;;;;;;;21.53;12.47;;;;;;;;;;10433434;27;20783;-70
2020/12/16 20:08:06;;;;;;;21.93;12.07;;;;;;;;;;10436835;27;20605;-69
2020/12/16 20:13:08;;;;;;;21.03;11.03;;;;;;;;;;10430770;27;20216;-70
2020/12/16 20:18:11;;;;;;;20.33;11.83;;;;;;;;;;10423709;27;20253;-68
2020/12/16 20:23:13;;;;;;;18.70;11.60;;;;;;;;;;10438744;27;20227;-70
2020/12/16 20:28:15;;;;;;;23.33;11.57;;;;;;;;;;10435501;27;20624;-69
2020/12/16 20:33:19;;;;;;;19.93;11.93;;;;;;;;;;10433068;27;20215;-69
2020/12/16 20:38:21;;;;;;;20.20;11.73;;;;;;;;;;10434318;27;20214;-70
2020/12/16 20:43:23;;;;;;;20.27;11.43;;;;;;;;;;10432139;27;20613;-70
2020/12/16 20:48:26;;;;;;;18.50;11.53;;;;;;;;;;10429773;27;20760;-69
2020/12/16 20:53:28;;;;;;;18.57;10.80;;;;;;;;;;10431828;27;20234;-69
2020/12/16 20:58:30;;;;;;;18.93;10.90;;;;;;;;;;10445599;27;20215;-69
2020/12/16 21:03:34;;;;;;;20.47;10.83;;;;;;;;;;10440520;27;20235;-69
2020/12/16 21:08:37;;;;;;;17.50;10.57;;;;;;;;;;10444472;27;20596;-70
2020/12/16 21:13:39;;;;;;;17.70;10.53;;;;;;;;;;10446574;27;20211;-70
2020/12/16 21:18:42;;;;;;;18.87;10.57;;;;;;;;;;10444918;27;20211;-70
2020/12/16 21:23:44;;;;;;;19.00;10.63;;;;;;;;;;10446903;27;20282;-71
2020/12/16 21:28:46;;;;;;;16.30;10.10;;;;;;;;;;10439039;27;20211;-71
2020/12/16 21:33:49;;;;;;;17.87;10.00;;;;;;;;;;10443705;27;20211;-70
2020/12/16 21:38:52;;;;;;;16.80;9.47;;;;;;;;;;10443213;27;20842;-69
2020/12/16 21:43:54;;;;;;;15.70;9.13;;;;;;;;;;10439398;27;20239;-70
2020/12/16 21:48:57;;;;;;;15.87;9.40;;;;;;;;;;10441771;27;20220;-70
2020/12/16 21:53:59;;;;;;;17.67;8.87;;;;;;;;;;10438074;27;20239;-70
2020/12/16 21:59:01;;;;;;;13.07;8.00;;;;;;;;;;10440630;27;20638;-70
2020/12/16 22:04:04;;;;;;;13.23;7.40;;;;;;;;;;10437881;27;20252;-69
2020/12/16 22:09:06;;;;;;;12.33;7.60;;;;;;;;;;10440467;27;20302;-69
2020/12/16 22:14:08;;;;;;;14.10;8.17;;;;;;;;;;10430219;27;20214;-69
2020/12/16 22:19:11;;;;;;;15.03;7.83;;;;;;;;;;10440334;27;20211;-70
2020/12/16 22:24:13;;;;;;;12.07;7.57;;;;;;;;;;10445568;27;20235;-69
2020/12/16 22:29:15;;;;;;;14.83;8.97;;;;;;;;;;10443063;27;20203;-70
2020/12/16 22:34:18;;;;;;;12.10;7.80;;;;;;;;;;10435551;27;20212;-70
2020/12/16 22:39:19;;;;;;;12.80;8.30;;;;;;;;;;10433619;27;20247;-70
2020/12/16 22:44:21;;;;;;;14.43;9.23;;;;;;;;;;10466717;27;20234;-69
2020/12/16 22:49:24;;;;;;;14.30;8.47;;;;;;;;;;10437408;27;20230;-70
2020/12/16 22:54:26;;;;;;;16.03;8.40;;;;;;;;;;10440101;27;20247;-70
2020/12/16 22:59:28;;;;;;;15.53;9.13;;;;;;;;;;10439603;27;20227;-70
2020/12/16 23:04:31;;;;;;;14.27;8.57;;;;;;;;;;10443519;27;20239;-70
2020/12/16 23:09:35;;;;;;;14.00;8.90;;;;;;;;;;10439729;27;20734;-70
2020/12/16 23:14:37;;;;;;;12.63;7.57;;;;;;;;;;10442106;27;20208;-69
2020/12/16 23:19:40;;;;;;;14.30;9.00;;;;;;;;;;10440075;27;20226;-69
2020/12/16 23:24:42;;;;;;;16.10;8.30;;;;;;;;;;10442728;27;20853;-69
2020/12/16 23:29:44;;;;;;;12.00;8.47;;;;;;;;;;10446405;27;21013;-70
2020/12/16 23:34:47;;;;;;;11.70;7.53;;;;;;;;;;10431336;27;20219;-69
2020/12/16 23:39:49;;;;;;;13.07;8.20;;;;;;;;;;10436887;27;20219;-70
2020/12/16 23:44:51;;;;;;;13.37;8.53;;;;;;;;;;10445329;27;20576;-70
2020/12/16 23:49:54;;;;;;;13.10;8.47;;;;;;;;;;10437433;27;20222;-69
2020/12/16 23:54:56;;;;;;;15.90;8.77;;;;;;;;;;10428100;27;20235;-69
2020/12/16 23:59:58;;;;;;;14.73;8.57;;;;;;;;;;10440158;27;20279;-69
